createdAt,value
2019-06-27T00:01:18.537Z,17.40
2019-06-27T00:03:46.762Z,16.27
2019-06-27T00:06:14.705Z,16.93
2019-06-27T00:08:43.685Z,16.37
2019-06-27T00:11:11.703Z,17.20
2019-06-27T00:13:39.878Z,17.60
2019-06-27T00:16:08.038Z,18.03
2019-06-27T00:18:36.122Z,16.70
2019-06-27T00:21:04.166Z,16.37
2019-06-27T00:23:31.941Z,17.27
2019-06-27T00:25:59.899Z,16.57
2019-06-27T00:28:27.986Z,18.27
2019-06-27T00:30:56.077Z,17.27
2019-06-27T00:33:23.660Z,17.23
2019-06-27T00:35:51.210Z,16.87
2019-06-27T00:38:18.843Z,17.67
2019-06-27T00:40:46.471Z,18.10
2019-06-27T00:43:14.004Z,17.33
2019-06-27T00:45:41.642Z,18.80
2019-06-27T00:48:09.179Z,17.70
2019-06-27T00:50:36.773Z,17.90
2019-06-27T00:53:04.401Z,18.37
2019-06-27T00:55:32.058Z,17.77
2019-06-27T00:58:00.251Z,18.27
2019-06-27T01:00:28.204Z,19.53
2019-06-27T01:02:56.564Z,18.27
2019-06-27T01:05:24.477Z,17.63
2019-06-27T01:07:52.474Z,17.30
2019-06-27T01:10:20.656Z,19.07
2019-06-27T01:12:48.590Z,19.13
2019-06-27T01:15:18.629Z,19.53
2019-06-27T01:17:46.767Z,19.53
2019-06-27T01:20:14.911Z,17.97
2019-06-27T01:22:42.798Z,18.90
2019-06-27T01:25:10.806Z,19.13
2019-06-27T01:27:38.685Z,19.33
2019-06-27T01:30:07.236Z,19.73
2019-06-27T01:32:35.176Z,20.07
2019-06-27T01:35:04.290Z,20.07
2019-06-27T01:37:32.546Z,19.63
2019-06-27T01:40:00.722Z,19.87
2019-06-27T01:42:28.763Z,18.63
2019-06-27T01:45:04.832Z,20.60
2019-06-27T01:47:32.829Z,20.20
2019-06-27T01:50:00.999Z,20.50
2019-06-27T01:52:28.999Z,20.20
2019-06-27T01:54:57.237Z,19.17
2019-06-27T01:57:25.443Z,19.97
2019-06-27T01:59:53.528Z,19.90
2019-06-27T02:02:21.611Z,19.93
2019-06-27T02:04:49.508Z,20.77
2019-06-27T02:07:17.648Z,20.87
2019-06-27T02:09:45.720Z,20.10
2019-06-27T02:12:13.774Z,22.13
2019-06-27T02:14:42.002Z,21.80
2019-06-27T02:17:09.807Z,20.17
2019-06-27T02:19:37.735Z,21.53
2019-06-27T02:22:06.087Z,21.27
2019-06-27T02:24:35.172Z,20.20
2019-06-27T02:27:04.655Z,21.13
2019-06-27T02:29:32.681Z,21.13
2019-06-27T02:32:01.101Z,21.30
2019-06-27T02:34:29.461Z,21.27
2019-06-27T02:36:57.556Z,20.93
2019-06-27T02:39:25.522Z,21.53
2019-06-27T02:41:53.399Z,21.80
2019-06-27T02:44:21.359Z,21.87
2019-06-27T02:46:49.429Z,22.27
2019-06-27T02:49:17.289Z,22.47
2019-06-27T02:51:46.494Z,21.53
2019-06-27T02:54:14.001Z,21.63
2019-06-27T02:56:41.613Z,21.63
2019-06-27T02:59:09.641Z,21.70
2019-06-27T03:01:37.663Z,21.87
2019-06-27T03:04:05.496Z,21.47
2019-06-27T03:06:33.595Z,22.83
2019-06-27T03:09:01.565Z,22.30
2019-06-27T03:11:31.277Z,21.60
2019-06-27T03:13:59.582Z,22.20
2019-06-27T03:16:27.696Z,22.93
2019-06-27T03:18:55.697Z,21.63
2019-06-27T03:21:23.577Z,23.07
2019-06-27T03:23:51.663Z,22.87
2019-06-27T03:26:19.617Z,22.37
2019-06-27T03:28:52.669Z,22.10
2019-06-27T03:31:17.730Z,22.27
2019-06-27T03:33:45.336Z,22.37
2019-06-27T03:36:14.100Z,23.03
2019-06-27T03:38:41.834Z,22.90
2019-06-27T03:41:09.734Z,21.73
2019-06-27T03:43:37.880Z,22.40
2019-06-27T03:46:06.294Z,21.73
2019-06-27T03:48:34.466Z,21.70
2019-06-27T03:51:02.476Z,23.50
2019-06-27T03:53:30.820Z,23.17
2019-06-27T03:55:58.416Z,22.97
2019-06-27T03:58:26.020Z,22.10
2019-06-27T04:00:53.954Z,22.53
2019-06-27T04:03:21.837Z,22.10
2019-06-27T04:05:49.808Z,22.20
2019-06-27T04:08:17.853Z,22.07
2019-06-27T04:10:45.852Z,22.10
2019-06-27T04:13:15.115Z,20.40
2019-06-27T04:15:43.034Z,21.73
2019-06-27T04:18:11.017Z,20.57
2019-06-27T04:20:39.348Z,22.73
2019-06-27T04:23:06.877Z,21.50
2019-06-27T04:25:34.513Z,22.43
2019-06-27T04:28:02.865Z,25.53
2019-06-27T04:30:30.946Z,25.43
2019-06-27T04:32:58.884Z,26.30
2019-06-27T04:35:26.421Z,24.43
2019-06-27T04:37:54.048Z,29.17
2019-06-27T04:40:22.027Z,30.20
2019-06-27T04:42:49.594Z,26.47
2019-06-27T04:45:18.129Z,25.27
2019-06-27T04:47:45.830Z,27.60
2019-06-27T04:50:13.476Z,27.27
2019-06-27T04:52:41.207Z,26.97
2019-06-27T04:55:08.975Z,29.07
2019-06-27T04:57:36.554Z,26.70
2019-06-27T05:00:04.673Z,24.53
2019-06-27T05:02:32.168Z,24.63
2019-06-27T05:04:59.748Z,27.93
2019-06-27T05:07:27.306Z,26.13
2019-06-27T05:09:55.040Z,24.63
2019-06-27T05:12:22.741Z,27.67
2019-06-27T05:14:50.497Z,25.70
2019-06-27T05:17:18.137Z,30.10
2019-06-27T05:19:45.686Z,34.83
2019-06-27T05:22:13.296Z,36.37
2019-06-27T05:24:40.963Z,31.50
2019-06-27T05:27:08.701Z,32.47
2019-06-27T05:29:36.258Z,42.80
2019-06-27T05:32:03.956Z,38.80
2019-06-27T05:34:31.535Z,31.63
2019-06-27T05:36:59.196Z,33.27
2019-06-27T05:39:26.780Z,29.93
2019-06-27T05:41:54.382Z,24.27
2019-06-27T05:44:21.952Z,35.40
2019-06-27T05:46:49.630Z,29.67
2019-06-27T05:49:18.253Z,27.93
2019-06-27T05:51:45.804Z,27.13
2019-06-27T05:54:13.362Z,24.77
2019-06-27T05:56:40.903Z,27.67
2019-06-27T05:59:08.485Z,23.70
2019-06-27T06:01:36.161Z,27.10
2019-06-27T06:04:03.747Z,23.57
2019-06-27T06:06:31.293Z,27.37
2019-06-27T06:08:58.907Z,25.40
2019-06-27T06:11:26.558Z,26.57
2019-06-27T06:13:54.114Z,25.30
2019-06-27T06:16:21.754Z,23.60
2019-06-27T06:18:49.322Z,38.33
2019-06-27T06:21:16.941Z,28.83
2019-06-27T06:23:44.508Z,26.67
2019-06-27T06:26:12.129Z,25.37
2019-06-27T06:28:41.888Z,29.20
2019-06-27T06:31:09.434Z,26.07
2019-06-27T06:33:37.088Z,22.53
2019-06-27T06:36:06.307Z,20.07
2019-06-27T06:38:33.976Z,26.17
2019-06-27T06:41:01.596Z,27.27
2019-06-27T06:43:29.150Z,19.10
2019-06-27T06:45:57.361Z,17.87
2019-06-27T06:48:24.962Z,17.07
2019-06-27T06:50:52.524Z,20.57
2019-06-27T06:53:20.081Z,19.20
2019-06-27T06:55:47.627Z,27.82
2019-06-27T06:58:15.210Z,18.53
2019-06-27T07:00:42.782Z,23.07
2019-06-27T07:03:10.490Z,21.48
2019-06-27T07:05:38.131Z,23.00
2019-06-27T07:08:05.828Z,25.02
2019-06-27T07:10:33.447Z,17.23
2019-06-27T07:13:00.974Z,17.17
2019-06-27T07:15:28.513Z,18.48
2019-06-27T07:17:56.144Z,27.65
2019-06-27T07:20:23.637Z,18.32
2019-06-27T07:22:51.248Z,22.00
2019-06-27T07:25:18.833Z,18.70
2019-06-27T07:27:46.430Z,21.48
2019-06-27T07:30:15.074Z,19.73
2019-06-27T07:32:42.727Z,17.57
2019-06-27T07:35:10.615Z,16.67
2019-06-27T07:37:38.220Z,17.10
2019-06-27T07:40:07.322Z,16.50
2019-06-27T07:42:35.268Z,23.32
2019-06-27T07:45:02.952Z,16.57
2019-06-27T07:47:30.673Z,15.48
2019-06-27T07:49:58.295Z,17.57
2019-06-27T07:52:25.804Z,16.30
2019-06-27T07:54:53.521Z,16.35
2019-06-27T07:57:21.117Z,15.35
2019-06-27T07:59:48.747Z,18.35
2019-06-27T08:02:16.536Z,17.00
2019-06-27T08:04:44.474Z,19.55
2019-06-27T08:07:13.090Z,18.50
2019-06-27T08:09:40.712Z,14.60
2019-06-27T08:12:08.240Z,14.55
2019-06-27T08:14:35.786Z,18.42
2019-06-27T08:17:03.360Z,14.07
2019-06-27T08:19:30.916Z,17.75
2019-06-27T08:21:58.430Z,14.03
2019-06-27T08:24:26.074Z,15.00
2019-06-27T08:26:53.665Z,16.95
2019-06-27T08:29:21.436Z,16.85
2019-06-27T08:31:51.878Z,19.85
2019-06-27T08:34:18.795Z,16.10
2019-06-27T08:36:46.454Z,17.67
2019-06-27T08:39:14.190Z,17.07
2019-06-27T08:41:42.010Z,19.48
2019-06-27T08:44:09.758Z,17.02
2019-06-27T08:46:37.381Z,20.48
2019-06-27T08:49:04.973Z,15.93
2019-06-27T08:51:32.651Z,19.45
2019-06-27T08:54:00.236Z,16.30
2019-06-27T08:56:27.967Z,14.85
2019-06-27T08:58:55.491Z,15.53
2019-06-27T09:01:23.076Z,17.85
2019-06-27T09:03:50.663Z,15.00
2019-06-27T09:06:21.002Z,16.07
2019-06-27T09:08:47.803Z,17.20
2019-06-27T09:11:15.365Z,12.68
2019-06-27T09:13:42.921Z,13.65
2019-06-27T09:16:10.505Z,12.78
2019-06-27T09:18:38.073Z,13.75
2019-06-27T09:21:05.673Z,16.25
2019-06-27T09:23:33.358Z,15.63
2019-06-27T09:26:00.975Z,15.53
2019-06-27T09:28:28.662Z,13.48
2019-06-27T09:30:56.219Z,13.05
2019-06-27T09:33:23.860Z,12.70
2019-06-27T09:35:51.401Z,14.18
2019-06-27T09:38:19.035Z,14.15
2019-06-27T09:40:46.684Z,16.05
2019-06-27T09:43:14.291Z,13.58
2019-06-27T09:45:41.850Z,15.58
2019-06-27T09:48:09.452Z,12.43
2019-06-27T09:50:37.005Z,13.80
2019-06-27T09:53:04.580Z,11.85
2019-06-27T09:55:32.163Z,13.32
2019-06-27T09:58:00.079Z,14.30
2019-06-27T10:00:28.058Z,12.53
2019-06-27T10:02:55.659Z,12.78
2019-06-27T10:05:23.427Z,13.53
2019-06-27T10:07:51.008Z,14.70
2019-06-27T10:10:18.657Z,16.45
2019-06-27T10:12:47.250Z,19.67
2019-06-27T10:15:15.114Z,12.60
2019-06-27T10:17:42.681Z,13.00
2019-06-27T10:20:10.417Z,16.87
2019-06-27T10:22:38.034Z,14.40
2019-06-27T10:25:05.881Z,13.62
2019-06-27T10:27:33.540Z,11.95
2019-06-27T10:30:01.142Z,14.13
2019-06-27T10:32:28.729Z,15.65
2019-06-27T10:34:56.320Z,14.30
2019-06-27T10:37:23.937Z,16.23
2019-06-27T10:39:51.514Z,14.63
2019-06-27T10:42:19.045Z,12.80
2019-06-27T10:44:46.681Z,11.75
2019-06-27T10:47:14.198Z,11.45
2019-06-27T10:49:41.835Z,17.00
2019-06-27T10:52:09.386Z,11.12
2019-06-27T10:54:36.962Z,12.53
2019-06-27T10:57:04.548Z,14.78
2019-06-27T10:59:32.210Z,12.80
2019-06-27T11:01:59.745Z,14.20
2019-06-27T11:04:28.434Z,13.43
2019-06-27T11:06:55.965Z,12.63
2019-06-27T11:09:23.601Z,12.43
2019-06-27T11:11:51.132Z,14.18
2019-06-27T11:14:19.334Z,11.88
2019-06-27T11:16:47.070Z,13.03
2019-06-27T11:19:14.700Z,22.98
2019-06-27T11:21:42.283Z,23.07
2019-06-27T11:24:10.059Z,11.90
2019-06-27T11:26:37.683Z,13.05
2019-06-27T11:29:05.365Z,13.80
2019-06-27T11:31:32.971Z,15.50
2019-06-27T11:34:00.590Z,14.05
2019-06-27T11:36:28.250Z,13.93
2019-06-27T11:38:57.232Z,11.80
2019-06-27T11:41:24.765Z,11.73
2019-06-27T11:43:52.377Z,10.48
2019-06-27T11:46:19.966Z,14.87
2019-06-27T11:48:48.670Z,11.63
2019-06-27T11:51:16.197Z,12.65
2019-06-27T11:53:43.933Z,10.03
2019-06-27T11:56:11.444Z,12.35
2019-06-27T11:58:39.083Z,13.45
2019-06-27T12:01:07.563Z,13.15
2019-06-27T12:03:48.412Z,9.98
2019-06-27T12:06:04.786Z,15.95
2019-06-27T12:08:32.489Z,12.15
2019-06-27T12:11:00.125Z,14.38
2019-06-27T12:13:27.739Z,11.33
2019-06-27T12:15:55.362Z,15.08
2019-06-27T12:18:22.953Z,11.90
2019-06-27T12:20:50.699Z,15.55
2019-06-27T12:23:18.244Z,15.53
2019-06-27T12:25:45.828Z,13.35
2019-06-27T12:28:13.522Z,9.88
2019-06-27T12:30:41.187Z,13.55
2019-06-27T12:33:08.723Z,11.85
2019-06-27T12:35:36.263Z,11.03
2019-06-27T12:38:03.843Z,14.80
2019-06-27T12:40:31.483Z,10.80
2019-06-27T12:42:59.099Z,11.53
2019-06-27T12:45:26.616Z,11.70
2019-06-27T12:47:54.215Z,10.65
2019-06-27T12:50:21.920Z,9.78
2019-06-27T12:52:49.485Z,15.45
2019-06-27T12:55:17.143Z,16.62
2019-06-27T12:57:44.712Z,14.10
2019-06-27T13:00:12.662Z,15.23
2019-06-27T13:02:40.232Z,9.98
2019-06-27T13:05:08.411Z,13.72
2019-06-27T13:07:35.940Z,15.35
2019-06-27T13:10:03.772Z,10.70
2019-06-27T13:12:31.294Z,11.97
2019-06-27T13:14:58.949Z,11.25
2019-06-27T13:17:26.967Z,13.93
2019-06-27T13:19:54.616Z,12.78
2019-06-27T13:22:22.138Z,17.77
2019-06-27T13:24:49.759Z,12.98
2019-06-27T13:27:17.309Z,13.08
2019-06-27T13:29:45.111Z,11.30
2019-06-27T13:32:13.237Z,10.98
2019-06-27T13:34:41.360Z,13.80
2019-06-27T13:37:09.066Z,17.90
2019-06-27T13:39:36.782Z,13.78
2019-06-27T13:42:04.405Z,14.20
2019-06-27T13:44:31.934Z,13.83
2019-06-27T13:46:59.509Z,12.25
2019-06-27T13:49:27.030Z,14.28
2019-06-27T13:51:54.772Z,17.85
2019-06-27T13:54:22.358Z,14.20
2019-06-27T13:56:49.984Z,15.30
2019-06-27T13:59:17.645Z,14.33
2019-06-27T14:01:45.234Z,11.65
2019-06-27T14:04:12.832Z,11.57
2019-06-27T14:06:41.468Z,15.70
2019-06-27T14:09:21.949Z,12.20
2019-06-27T14:11:39.026Z,21.70
2019-06-27T14:14:06.735Z,27.48
2019-06-27T14:16:34.425Z,18.05
2019-06-27T14:19:02.149Z,12.98
2019-06-27T14:21:29.704Z,17.37
2019-06-27T14:23:57.440Z,16.65
2019-06-27T14:26:25.384Z,14.05
2019-06-27T14:28:53.113Z,16.73
2019-06-27T14:31:20.676Z,15.68
2019-06-27T14:33:48.347Z,14.70
2019-06-27T14:36:15.990Z,16.07
2019-06-27T14:38:43.641Z,17.85
2019-06-27T14:41:11.209Z,12.88
2019-06-27T14:43:38.937Z,13.45
2019-06-27T14:46:06.552Z,13.22
2019-06-27T14:48:34.472Z,14.83
2019-06-27T14:51:02.122Z,16.02
2019-06-27T14:53:29.794Z,13.18
2019-06-27T14:55:57.489Z,15.20
2019-06-27T14:58:25.165Z,14.00
2019-06-27T15:00:52.714Z,19.73
2019-06-27T15:03:20.394Z,16.05
2019-06-27T15:05:48.002Z,11.90
2019-06-27T15:08:15.687Z,16.93
2019-06-27T15:10:43.247Z,11.05
2019-06-27T15:13:10.844Z,11.50
2019-06-27T15:15:38.394Z,11.55
2019-06-27T15:18:05.960Z,11.80
2019-06-27T15:20:33.689Z,13.35
2019-06-27T15:23:01.351Z,12.75
2019-06-27T15:25:28.940Z,17.07
2019-06-27T15:27:56.696Z,11.57
2019-06-27T15:30:24.173Z,11.20
2019-06-27T15:32:51.797Z,14.50
2019-06-27T15:35:19.271Z,11.73
2019-06-27T15:37:46.837Z,13.78
2019-06-27T15:40:14.687Z,15.53
2019-06-27T15:42:42.682Z,14.30
2019-06-27T15:45:10.673Z,12.75
2019-06-27T15:47:38.342Z,13.85
2019-06-27T15:50:06.301Z,12.18
2019-06-27T15:52:34.049Z,12.18
2019-06-27T15:55:01.591Z,16.57
2019-06-27T15:57:29.211Z,18.15
2019-06-27T15:59:56.819Z,16.25
2019-06-27T16:02:24.364Z,18.52
2019-06-27T16:04:51.908Z,11.97
2019-06-27T16:07:19.656Z,13.78
2019-06-27T16:09:47.271Z,12.65
2019-06-27T16:12:14.896Z,17.00
2019-06-27T16:14:42.455Z,13.85
2019-06-27T16:17:10.081Z,14.83
2019-06-27T16:19:37.682Z,11.88
2019-06-27T16:22:05.331Z,12.00
2019-06-27T16:24:32.882Z,10.95
2019-06-27T16:27:00.567Z,11.93
2019-06-27T16:29:28.358Z,12.43
2019-06-27T16:31:55.952Z,13.38
2019-06-27T16:34:28.717Z,11.73
2019-06-27T16:36:54.582Z,12.28
2019-06-27T16:39:22.225Z,10.20
2019-06-27T16:41:49.815Z,10.90
2019-06-27T16:44:19.028Z,10.15
2019-06-27T16:46:46.592Z,11.73
2019-06-27T16:49:14.234Z,11.55
2019-06-27T16:51:41.845Z,11.18
2019-06-27T16:54:09.459Z,10.20
2019-06-27T16:56:37.180Z,10.90
2019-06-27T16:59:04.950Z,9.95
2019-06-27T17:01:32.590Z,10.45
2019-06-27T17:04:00.256Z,13.78
2019-06-27T17:06:40.904Z,12.58
2019-06-27T17:08:57.400Z,10.68
2019-06-27T17:11:24.988Z,13.00
2019-06-27T17:13:52.614Z,12.35
2019-06-27T17:16:22.382Z,13.25
2019-06-27T17:18:50.064Z,11.85
2019-06-27T17:21:17.779Z,13.80
2019-06-27T17:23:45.491Z,11.35
2019-06-27T17:26:13.105Z,12.47
2019-06-27T17:28:40.872Z,13.62
2019-06-27T17:31:08.473Z,12.13
2019-06-27T17:33:36.051Z,10.63
2019-06-27T17:36:03.685Z,13.60
2019-06-27T17:38:31.376Z,11.05
2019-06-27T17:40:58.928Z,12.40
2019-06-27T17:43:26.516Z,14.43
2019-06-27T17:45:54.109Z,11.88
2019-06-27T17:48:21.697Z,11.50
2019-06-27T17:50:49.382Z,11.63
2019-06-27T17:53:16.925Z,12.07
2019-06-27T17:55:44.504Z,12.33
2019-06-27T17:58:12.074Z,11.83
2019-06-27T18:00:39.914Z,11.83
2019-06-27T18:03:07.482Z,12.50
2019-06-27T18:05:35.138Z,11.33
2019-06-27T18:08:02.735Z,10.90
2019-06-27T18:10:30.356Z,12.05
2019-06-27T18:12:58.308Z,12.30
2019-06-27T18:15:25.901Z,12.55
2019-06-27T18:17:53.536Z,12.20
2019-06-27T18:20:21.222Z,10.82
2019-06-27T18:22:49.065Z,13.65
2019-06-27T18:25:16.723Z,13.88
2019-06-27T18:27:44.341Z,12.28
2019-06-27T18:30:12.466Z,13.22
2019-06-27T18:32:40.794Z,12.00
2019-06-27T18:35:09.027Z,12.50
2019-06-27T18:37:36.676Z,12.50
2019-06-27T18:40:04.791Z,15.20
2019-06-27T18:42:32.924Z,11.53
2019-06-27T18:45:00.983Z,15.00
2019-06-27T18:47:29.112Z,13.20
2019-06-27T18:49:57.333Z,16.35
2019-06-27T18:52:25.728Z,13.90
2019-06-27T18:54:53.596Z,13.68
2019-06-27T18:57:22.317Z,11.08
2019-06-27T18:59:53.428Z,11.28
2019-06-27T19:02:19.990Z,13.75
2019-06-27T19:04:47.818Z,11.53
2019-06-27T19:07:15.832Z,12.58
2019-06-27T19:09:43.653Z,18.00
2019-06-27T19:12:11.801Z,12.90
2019-06-27T19:14:40.302Z,15.28
2019-06-27T19:17:08.352Z,12.18
2019-06-27T19:19:38.006Z,12.20
2019-06-27T19:22:25.657Z,11.45
2019-06-27T19:24:58.290Z,13.65
2019-06-27T19:27:26.858Z,13.03
2019-06-27T19:29:54.859Z,12.13
2019-06-27T19:32:22.956Z,12.73
2019-06-27T19:34:51.054Z,16.12
2019-06-27T19:37:19.019Z,13.20
2019-06-27T19:39:47.447Z,12.68
2019-06-27T19:42:15.766Z,12.30
2019-06-27T19:44:43.539Z,15.43
2019-06-27T19:47:11.204Z,14.40
2019-06-27T19:49:38.891Z,12.15
2019-06-27T19:52:06.546Z,11.78
2019-06-27T19:54:34.533Z,15.00
2019-06-27T19:57:02.222Z,13.03
2019-06-27T19:59:29.840Z,17.25
2019-06-27T20:01:57.535Z,15.23
2019-06-27T20:04:25.762Z,13.03
2019-06-27T20:06:53.780Z,13.62
2019-06-27T20:09:21.978Z,12.73
2019-06-27T20:11:51.333Z,12.60
2019-06-27T20:14:18.916Z,14.58
2019-06-27T20:16:46.776Z,15.15
2019-06-27T20:19:14.495Z,16.00
2019-06-27T20:21:42.096Z,12.90
2019-06-27T20:24:09.697Z,13.50
2019-06-27T20:26:37.414Z,15.63
2019-06-27T20:29:05.057Z,13.68
2019-06-27T20:31:32.558Z,13.00
2019-06-27T20:34:00.167Z,15.70
2019-06-27T20:36:27.833Z,13.93
2019-06-27T20:38:55.493Z,13.20
2019-06-27T20:41:23.142Z,15.75
2019-06-27T20:43:50.688Z,16.20
2019-06-27T20:46:18.284Z,13.77
2019-06-27T20:48:45.834Z,13.77
2019-06-27T20:51:13.386Z,16.07
2019-06-27T20:53:40.995Z,13.57
2019-06-27T20:56:09.534Z,12.87
2019-06-27T20:58:37.099Z,13.70
2019-06-27T21:01:04.768Z,15.77
2019-06-27T21:03:32.329Z,15.50
2019-06-27T21:06:00.771Z,13.50
2019-06-27T21:08:28.390Z,14.00
2019-06-27T21:10:55.954Z,14.03
2019-06-27T21:13:23.523Z,13.30
2019-06-27T21:15:51.140Z,14.60
2019-06-27T21:18:18.692Z,14.27
2019-06-27T21:20:46.311Z,13.10
2019-06-27T21:23:14.890Z,14.23
2019-06-27T21:25:42.495Z,14.80
2019-06-27T21:28:10.385Z,14.77
2019-06-27T21:30:38.022Z,15.30
2019-06-27T21:33:05.609Z,18.37
2019-06-27T21:35:34.001Z,14.60
2019-06-27T21:38:02.649Z,17.30
2019-06-27T21:40:30.347Z,15.20
2019-06-27T21:42:57.961Z,14.60
2019-06-27T21:45:25.655Z,15.60
2019-06-27T21:47:53.461Z,14.53
2019-06-27T21:50:21.139Z,15.87
2019-06-27T21:52:48.633Z,13.90
2019-06-27T21:55:16.317Z,14.40
2019-06-27T21:57:43.901Z,14.00
2019-06-27T22:00:11.696Z,14.30
2019-06-27T22:02:41.253Z,13.30
2019-06-27T22:05:09.013Z,13.03
2019-06-27T22:07:36.652Z,14.60
2019-06-27T22:10:05.729Z,16.17
2019-06-27T22:12:34.629Z,15.27
2019-06-27T22:15:02.304Z,15.10
2019-06-27T22:17:31.094Z,14.77
2019-06-27T22:20:14.019Z,16.17
2019-06-27T22:22:28.341Z,14.90
2019-06-27T22:24:55.998Z,16.53
2019-06-27T22:27:23.658Z,15.53
2019-06-27T22:29:51.269Z,13.90
2019-06-27T22:32:18.866Z,14.60
2019-06-27T22:34:46.895Z,13.83
2019-06-27T22:37:23.568Z,17.70
2019-06-27T22:40:11.212Z,14.77
2019-06-27T22:42:57.824Z,15.90
2019-06-27T22:45:43.629Z,14.73
2019-06-27T22:48:14.258Z,14.80
2019-06-27T22:51:05.860Z,13.50
2019-06-27T22:53:38.851Z,12.40
2019-06-27T22:56:06.984Z,14.03
2019-06-27T22:58:34.488Z,16.63
2019-06-27T23:01:03.944Z,15.43
2019-06-27T23:03:31.470Z,17.50
2019-06-27T23:05:59.115Z,12.80
2019-06-27T23:08:26.637Z,12.97
2019-06-27T23:10:54.697Z,13.30
2019-06-27T23:13:22.211Z,12.17
2019-06-27T23:15:49.959Z,12.37
2019-06-27T23:18:17.482Z,12.50
2019-06-27T23:20:45.067Z,12.47
2019-06-27T23:23:12.573Z,12.03
2019-06-27T23:25:40.184Z,11.87
2019-06-27T23:28:07.720Z,11.03
2019-06-27T23:30:35.378Z,11.33
2019-06-27T23:33:03.097Z,14.17
2019-06-27T23:35:30.752Z,10.27
2019-06-27T23:37:58.338Z,10.97
2019-06-27T23:40:25.953Z,12.47
2019-06-27T23:42:53.590Z,9.97
2019-06-27T23:45:21.619Z,9.80
2019-06-27T23:47:49.544Z,10.27
2019-06-27T23:50:17.477Z,11.83
2019-06-27T23:52:46.366Z,10.67
2019-06-27T23:55:14.438Z,10.47
2019-06-27T23:57:42.368Z,10.73
